Time;durP1;ratioP1;P1;durP2;ratioP2;P2;SDS_P1;SDS_P2;PMS_P1;PMS_P2;Temp;Humidity;BMP_temperature;BMP_pressure;BME280_temperature;BME280_humidity;BME280_pressure;Samples;Min_cycle;Max_cycle;Signal;HPM_P1;HPM_P2
2024/03/22 00:01:53;;;;;;;10.05;7.47;;;9.00;99.90;;;;;;5088249;28;20107;-72
2024/03/22 00:04:18;;;;;;;10.70;7.60;;;9.00;99.90;;;;;;5087366;28;20020;-72
2024/03/22 00:06:45;;;;;;;;;;;9.00;99.90;;;;;;5089199;28;20085;-71
2024/03/22 00:09:11;;;;;;;13.85;9.27;;;9.00;99.90;;;;;;5089005;28;19908;-71
2024/03/22 00:11:37;;;;;;;;;;;9.00;99.90;;;;;;5088022;28;20028;-71
2024/03/22 00:14:03;;;;;;;13.77;8.55;;;9.00;99.90;;;;;;5089004;28;19942;-71
2024/03/22 00:16:28;;;;;;;;;;;9.00;99.90;;;;;;5088365;28;20532;-71
2024/03/22 00:18:54;;;;;;;12.60;9.48;;;9.00;99.90;;;;;;5088628;28;19912;-71
2024/03/22 00:21:19;;;;;;;;;;;9.10;99.90;;;;;;5088688;28;20027;-71
2024/03/22 00:23:45;;;;;;;13.48;8.63;;;9.10;99.90;;;;;;5088662;28;19935;-72
2024/03/22 00:26:11;;;;;;;;;;;9.10;99.90;;;;;;5089032;28;20495;-72
2024/03/22 00:28:36;;;;;;;15.52;9.18;;;9.10;99.90;;;;;;5088459;28;19947;-72
2024/03/22 00:31:02;;;;;;;;;;;9.10;99.90;;;;;;5088031;28;20024;-72
2024/03/22 00:33:27;;;;;;;17.60;10.48;;;9.10;99.90;;;;;;5087980;28;19912;-71
2024/03/22 00:35:53;;;;;;;;;;;9.10;99.90;;;;;;5089195;28;20019;-71
2024/03/22 00:38:18;;;;;;;18.88;11.13;;;9.10;99.90;;;;;;5087387;28;20429;-71
2024/03/22 00:40:44;;;;;;;;;;;9.10;99.90;;;;;;5087939;28;20111;-71
2024/03/22 00:43:09;;;;;;;15.15;10.63;;;9.10;99.90;;;;;;5088219;28;19908;-71
2024/03/22 00:45:34;;;;;;;;;;;9.10;99.90;;;;;;5088236;28;20028;-71
2024/03/22 00:48:00;;;;;;;15.77;10.30;;;9.10;99.90;;;;;;5087807;28;19911;-71
2024/03/22 00:50:26;;;;;;;;;;;9.10;99.90;;;;;;5088509;28;20024;-71
2024/03/22 00:52:52;;;;;;;20.35;12.38;;;9.10;99.90;;;;;;5087748;28;20328;-72
2024/03/22 00:55:18;;;;;;;19.33;12.18;;;9.10;99.90;;;;;;5088306;28;20039;-71
2024/03/22 00:57:43;;;;;;;19.10;12.98;;;9.10;99.90;;;;;;5087276;28;20036;-71
2024/03/22 01:00:10;;;;;;;;;;;9.10;99.90;;;;;;5088657;28;20076;-71
2024/03/22 01:02:35;;;;;;;22.27;12.70;;;9.10;99.90;;;;;;5087669;28;19996;-71
2024/03/22 01:05:00;;;;;;;;;;;9.10;99.90;;;;;;5089045;28;20055;-71
2024/03/22 01:07:26;;;;;;;21.42;12.93;;;9.10;99.90;;;;;;5087302;28;20009;-71
2024/03/22 01:12:46;;;;;;;27.60;15.07;;;9.20;99.90;;;;;;5094446;22;19928;-71
2024/03/22 01:15:12;;;;;;;;;;;9.20;99.90;;;;;;5088381;28;20041;-72
2024/03/22 01:17:37;;;;;;;29.92;15.32;;;9.20;99.90;;;;;;5087049;28;19942;-72
2024/03/22 01:20:03;;;;;;;;;;;9.20;99.90;;;;;;5088232;28;20074;-71
2024/03/22 01:22:29;;;;;;;29.08;16.90;;;9.30;99.90;;;;;;5057984;28;19999;-71
2024/03/22 01:24:54;;;;;;;;;;;9.30;99.90;;;;;;5051410;28;20065;-71
2024/03/22 01:27:20;;;;;;;30.10;17.90;;;9.30;99.90;;;;;;5052884;28;20386;-69
2024/03/22 01:29:48;;;;;;;;;;;9.30;99.90;;;;;;5056313;28;20398;-69
2024/03/22 01:32:14;;;;;;;26.98;16.63;;;9.30;99.90;;;;;;5054308;28;19908;-69
2024/03/22 01:34:39;;;;;;;;;;;9.30;99.90;;;;;;5053871;28;20167;-69
2024/03/22 01:37:05;;;;;;;23.50;15.13;;;9.30;99.90;;;;;;5052515;28;19919;-69
2024/03/22 01:39:30;;;;;;;;;;;9.30;99.90;;;;;;5052555;28;20033;-69
2024/03/22 01:41:56;;;;;;;25.92;15.48;;;9.30;99.90;;;;;;5058152;28;19904;-69
2024/03/22 01:44:28;;;;;;;;;;;9.40;99.90;;;;;;5061488;28;20024;-71
2024/03/22 01:46:53;;;;;;;25.63;14.63;;;9.40;99.90;;;;;;5055657;28;19917;-71
2024/03/22 01:49:19;;;;;;;;;;;9.40;99.90;;;;;;5057153;28;20025;-71
2024/03/22 01:51:44;;;;;;;33.35;18.55;;;9.40;99.90;;;;;;5056112;28;19909;-71
2024/03/22 01:54:10;;;;;;;;;;;9.40;99.90;;;;;;5056883;28;20028;-71
2024/03/22 01:56:39;;;;;;;29.55;17.10;;;9.40;99.90;;;;;;5057785;28;19913;-71
2024/03/22 01:59:06;;;;;;;29.10;16.35;;;9.40;99.90;;;;;;5056020;28;20021;-71
2024/03/22 02:01:32;;;;;;;32.70;17.50;;;9.40;99.90;;;;;;5052467;28;20491;-71
2024/03/22 02:03:58;;;;;;;27.02;18.63;;;9.40;99.90;;;;;;5054990;28;20036;-71
2024/03/22 02:06:23;;;;;;;;;;;9.40;99.90;;;;;;5055767;28;20025;-71
2024/03/22 02:08:49;;;;;;;27.30;17.13;;;9.40;99.90;;;;;;5054046;28;19912;-71
2024/03/22 02:11:14;;;;;;;;;;;9.40;99.90;;;;;;5057104;28;20039;-71
2024/03/22 02:13:40;;;;;;;31.13;17.42;;;9.40;99.90;;;;;;5054679;28;19913;-71
2024/03/22 02:16:05;;;;;;;;;;;9.40;99.90;;;;;;5060057;28;20104;-71
2024/03/22 02:18:31;;;;;;;25.38;15.68;;;9.40;99.90;;;;;;5057304;28;19999;-71
2024/03/22 02:20:56;;;;;;;;;;;9.50;99.90;;;;;;5060653;28;20115;-71
2024/03/22 02:23:42;;;;;;;22.05;15.23;;;9.50;99.90;;;;;;5063192;28;19958;-72
2024/03/22 02:26:08;;;;;;;29.63;16.17;;;9.50;99.90;;;;;;5053669;28;20491;-72
2024/03/22 02:28:34;;;;;;;;;;;9.50;99.90;;;;;;5056681;28;20029;-71
2024/03/22 02:31:00;;;;;;;25.03;16.23;;;9.50;99.90;;;;;;5061287;28;19912;-71
2024/03/22 02:33:26;;;;;;;;;;;9.50;99.90;;;;;;5059250;28;20040;-72
2024/03/22 02:35:52;;;;;;;25.50;16.88;;;9.50;99.90;;;;;;5052703;28;19913;-72
2024/03/22 02:38:17;;;;;;;;;;;9.60;99.90;;;;;;5055676;28;20032;-72
2024/03/22 02:40:44;;;;;;;28.67;17.75;;;9.50;99.90;;;;;;5053116;28;19916;-72
2024/03/22 02:43:10;;;;;;;27.13;15.68;;;9.50;99.90;;;;;;5059316;28;20036;-72
2024/03/22 02:45:35;;;;;;;;;;;9.50;99.90;;;;;;5057426;28;20021;-72
2024/03/22 02:48:01;;;;;;;27.40;17.25;;;9.50;99.90;;;;;;5054003;28;20300;-72
2024/03/22 02:50:26;;;;;;;;;;;9.60;99.90;;;;;;5054657;28;20657;-72
2024/03/22 02:52:51;;;;;;;24.48;15.52;;;9.60;99.90;;;;;;5055519;28;19912;-72
2024/03/22 02:55:17;;;;;;;;;;;9.60;99.90;;;;;;5054250;28;20013;-72
2024/03/22 02:57:42;;;;;;;30.02;17.15;;;9.60;99.90;;;;;;5056908;28;19924;-72
2024/03/22 03:00:08;;;;;;;;;;;9.60;99.90;;;;;;5054215;28;20024;-72
2024/03/22 03:02:33;;;;;;;37.10;21.17;;;9.60;99.90;;;;;;5054616;28;19941;-72
2024/03/22 03:04:59;;;;;;;;;;;9.60;99.90;;;;;;5056303;28;20041;-72
2024/03/22 03:07:25;;;;;;;30.45;18.08;;;9.60;99.90;;;;;;5056195;28;20383;-72
2024/03/22 03:09:51;;;;;;;;;;;9.60;99.90;;;;;;5058772;28;20059;-72
2024/03/22 03:12:16;;;;;;;28.63;16.05;;;9.60;99.90;;;;;;5056864;28;20375;-72
2024/03/22 03:14:42;;;;;;;;;;;9.60;99.90;;;;;;5051612;28;20029;-72
2024/03/22 03:17:07;;;;;;;26.67;16.52;;;9.60;99.90;;;;;;5054198;28;19916;-72
2024/03/22 03:19:33;;;;;;;;;;;9.60;99.90;;;;;;5055354;28;20029;-72
2024/03/22 03:21:58;;;;;;;28.80;18.88;;;9.60;99.90;;;;;;5056770;28;19915;-72
2024/03/22 03:24:24;;;;;;;;;;;9.60;99.90;;;;;;5060009;28;20074;-72
2024/03/22 03:26:49;;;;;;;38.08;19.02;;;9.60;99.90;;;;;;5057495;28;19909;-72
2024/03/22 03:29:14;;;;;;;;;;;9.60;99.90;;;;;;5051879;28;20108;-72
2024/03/22 03:31:40;;;;;;;26.35;16.48;;;9.70;99.90;;;;;;5057260;28;19912;-72
2024/03/22 03:34:05;;;;;;;;;;;9.60;99.90;;;;;;5057321;28;20025;-72
2024/03/22 03:36:31;;;;;;;30.13;18.10;;;9.60;99.90;;;;;;5055457;28;19908;-72
2024/03/22 03:38:56;;;;;;;;;;;9.60;99.90;;;;;;5060602;28;20039;-72
2024/03/22 03:41:22;;;;;;;29.85;17.25;;;9.60;99.90;;;;;;5052523;28;19948;-72
2024/03/22 03:43:47;;;;;;;;;;;9.60;99.90;;;;;;5058273;28;20139;-72
2024/03/22 03:46:13;;;;;;;24.30;15.55;;;9.60;99.90;;;;;;5059878;28;20392;-72
2024/03/22 03:48:38;;;;;;;;;;;9.60;99.90;;;;;;5053052;28;20119;-72
2024/03/22 03:51:05;;;;;;;28.38;16.17;;;9.60;99.90;;;;;;5052947;28;19909;-72
2024/03/22 03:53:30;;;;;;;31.05;18.17;;;9.60;99.90;;;;;;5051580;28;20476;-72
2024/03/22 03:55:56;;;;;;;;;;;9.60;99.90;;;;;;5055581;28;20035;-72
2024/03/22 03:58:21;;;;;;;28.23;16.52;;;9.60;99.90;;;;;;5056909;28;19986;-72
2024/03/22 04:00:47;;;;;;;;;;;9.60;99.90;;;;;;5054071;28;20024;-72
2024/03/22 04:03:12;;;;;;;29.38;17.80;;;9.60;99.90;;;;;;5053734;28;19915;-72
2024/03/22 04:05:37;;;;;;;;;;;9.60;99.90;;;;;;5055011;28;20024;-72
2024/03/22 04:08:03;;;;;;;27.95;17.73;;;9.50;99.90;;;;;;5053454;28;20370;-72
2024/03/22 04:10:29;;;;;;;;;;;9.50;99.90;;;;;;5056988;28;20071;-72
2024/03/22 04:12:54;;;;;;;28.92;15.40;;;9.50;99.90;;;;;;5052910;28;19931;-72
2024/03/22 04:15:19;;;;;;;;;;;9.50;99.90;;;;;;5054660;28;20407;-72
2024/03/22 04:17:45;;;;;;;25.60;15.77;;;9.60;99.90;;;;;;5052237;28;19913;-72
2024/03/22 04:20:11;;;;;;;;;;;9.60;99.90;;;;;;5052939;28;20052;-72
2024/03/22 04:22:37;;;;;;;25.60;16.48;;;9.60;99.90;;;;;;5054656;28;19905;-72
2024/03/22 04:25:02;;;;;;;;;;;9.60;99.90;;;;;;5066302;28;20052;-72
2024/03/22 04:27:28;;;;;;;27.55;16.30;;;9.60;99.90;;;;;;5053920;28;19960;-72
2024/03/22 04:29:53;;;;;;;;;;;9.60;99.90;;;;;;5059509;28;20094;-72
2024/03/22 04:32:19;;;;;;;28.67;16.27;;;9.60;99.90;;;;;;5053486;28;19909;-72
2024/03/22 04:34:44;;;;;;;;;;;9.60;99.90;;;;;;5049623;28;20414;-72
2024/03/22 04:37:11;;;;;;;27.42;16.40;;;9.60;99.90;;;;;;5054036;28;19917;-72
2024/03/22 04:39:37;;;;;;;25.20;16.20;;;9.60;99.90;;;;;;5048481;28;20098;-72
2024/03/22 04:42:03;;;;;;;27.88;18.15;;;9.60;99.90;;;;;;5050162;28;20051;-72
2024/03/22 04:44:29;;;;;;;32.50;17.13;;;9.60;99.90;;;;;;5056548;28;20056;-72
2024/03/22 04:46:54;;;;;;;;;;;9.60;99.90;;;;;;5057279;28;20071;-72
2024/03/22 04:49:20;;;;;;;23.88;14.02;;;9.60;99.90;;;;;;5051668;28;19911;-72
2024/03/22 04:51:45;;;;;;;;;;;9.60;99.90;;;;;;5055621;28;20039;-72
2024/03/22 04:54:11;;;;;;;30.92;16.50;;;9.60;99.90;;;;;;5056023;28;19920;-72
2024/03/22 04:56:36;;;;;;;;;;;9.60;99.90;;;;;;5053806;28;20130;-72
2024/03/22 04:59:02;;;;;;;28.63;16.73;;;9.60;99.90;;;;;;5052233;28;19909;-71
2024/03/22 05:01:27;;;;;;;;;;;9.60;99.90;;;;;;5054218;28;20437;-72
2024/03/22 05:03:53;;;;;;;23.48;13.20;;;9.60;99.90;;;;;;5051177;28;19919;-72
2024/03/22 05:06:18;;;;;;;;;;;9.60;99.90;;;;;;5050091;28;20017;-72
2024/03/22 05:08:44;;;;;;;29.40;15.15;;;9.70;99.90;;;;;;5050874;28;19916;-72
2024/03/22 05:11:09;;;;;;;;;;;9.70;99.90;;;;;;5057794;28;20020;-72
2024/03/22 05:13:35;;;;;;;22.75;14.88;;;9.70;99.90;;;;;;5052177;28;19955;-72
2024/03/22 05:16:00;;;;;;;;;;;9.70;99.90;;;;;;5052033;28;20021;-71
2024/03/22 05:18:25;;;;;;;29.38;16.38;;;9.70;99.90;;;;;;5051266;28;19923;-71
2024/03/22 05:20:51;;;;;;;;;;;9.70;99.90;;;;;;5051067;28;20029;-71
2024/03/22 05:23:18;;;;;;;22.35;14.82;;;9.80;99.90;;;;;;5055301;28;19916;-71
2024/03/22 05:25:43;;;;;;;28.17;15.68;;;9.80;99.90;;;;;;5052382;28;20112;-71
2024/03/22 05:28:09;;;;;;;;;;;9.80;99.90;;;;;;5058282;28;20116;-71
2024/03/22 05:30:34;;;;;;;25.27;14.65;;;9.80;99.90;;;;;;5062234;28;20019;-72
2024/03/22 05:32:59;;;;;;;;;;;9.80;99.90;;;;;;5052488;28;20032;-72
2024/03/22 05:35:27;;;;;;;26.83;15.05;;;9.80;99.90;;;;;;5055725;28;19912;-71
2024/03/22 05:37:52;;;;;;;31.15;17.65;;;9.80;99.90;;;;;;5056483;28;20503;-72
2024/03/22 05:40:18;;;;;;;;;;;9.80;99.90;;;;;;5052209;28;20025;-72
2024/03/22 05:42:43;;;;;;;28.60;15.13;;;9.80;99.90;;;;;;5055660;28;20270;-72
2024/03/22 05:45:09;;;;;;;;;;;9.90;99.90;;;;;;5050350;28;20535;-72
2024/03/22 05:47:34;;;;;;;30.13;16.25;;;9.90;99.90;;;;;;5053765;28;19908;-72
2024/03/22 05:50:01;;;;;;;;;;;10.00;99.90;;;;;;5048124;28;20021;-72
2024/03/22 05:52:26;;;;;;;28.42;15.45;;;10.00;99.90;;;;;;5049180;28;19962;-72
2024/03/22 05:54:55;;;;;;;;;;;10.00;99.90;;;;;;5049456;28;20436;-72
2024/03/22 05:57:20;;;;;;;29.17;17.00;;;10.00;99.90;;;;;;5056349;28;20350;-72
2024/03/22 05:59:46;;;;;;;;;;;10.10;99.90;;;;;;5053007;28;20025;-72
2024/03/22 06:02:11;;;;;;;24.45;14.50;;;10.10;99.90;;;;;;5049464;28;20272;-72
2024/03/22 06:04:37;;;;;;;;;;;10.10;99.90;;;;;;5055364;28;20025;-71
2024/03/22 06:07:04;;;;;;;30.23;17.05;;;10.10;99.90;;;;;;5057642;28;20355;-72
2024/03/22 06:09:48;;;;;;;29.52;16.77;;;10.20;99.90;;;;;;5054104;28;20479;-72
2024/03/22 06:12:18;;;;;;;26.58;16.50;;;10.20;99.90;;;;;;5052372;28;20091;-73
2024/03/22 06:14:44;;;;;;;30.30;16.75;;;10.20;99.90;;;;;;5048229;28;21000;-71
2024/03/22 06:17:09;;;;;;;;;;;10.30;99.90;;;;;;5050228;28;20021;-72
2024/03/22 06:19:36;;;;;;;29.10;15.73;;;10.30;99.90;;;;;;5053348;28;20374;-72
2024/03/22 06:22:02;;;;;;;29.38;16.48;;;10.30;99.90;;;;;;5049854;28;20077;-72
2024/03/22 06:24:28;;;;;;;29.50;16.25;;;10.30;99.90;;;;;;5054311;28;20028;-71
2024/03/22 06:26:53;;;;;;;;;;;10.30;99.90;;;;;;5057381;28;20028;-72
2024/03/22 06:29:19;;;;;;;28.20;16.65;;;10.40;99.90;;;;;;5051545;28;20307;-72
2024/03/22 06:31:44;;;;;;;34.15;18.20;;;10.40;99.90;;;;;;5054813;28;20028;-72
2024/03/22 06:34:10;;;;;;;;;;;10.40;99.90;;;;;;5052280;28;20108;-72
2024/03/22 06:36:35;;;;;;;38.22;19.40;;;10.50;99.90;;;;;;5063205;28;19935;-72
2024/03/22 06:39:02;;;;;;;;;;;10.50;99.90;;;;;;5058412;28;20395;-72
2024/03/22 06:41:28;;;;;;;33.90;18.75;;;10.50;99.90;;;;;;5054296;28;19909;-72
2024/03/22 06:43:53;;;;;;;;;;;10.50;99.90;;;;;;5056533;28;20043;-72
2024/03/22 06:46:19;;;;;;;38.88;19.33;;;10.50;99.90;;;;;;5052380;28;20267;-73
2024/03/22 06:48:45;;;;;;;;;;;10.60;99.90;;;;;;5057244;28;20396;-73
2024/03/22 06:51:10;;;;;;;40.53;19.13;;;10.80;99.90;;;;;;5053075;28;20385;-75
2024/03/22 06:53:36;;;;;;;;;;;11.00;99.90;;;;;;5060375;28;20036;-80
2024/03/22 06:56:02;;;;;;;49.20;18.77;;;11.10;99.90;;;;;;5056146;28;19913;-77
2024/03/22 06:58:28;;;;;;;30.52;17.10;;;11.00;99.90;;;;;;5057430;28;20044;-77
2024/03/22 07:00:54;;;;;;;29.67;16.90;;;11.00;99.90;;;;;;5055435;28;20498;-76
2024/03/22 07:03:19;;;;;;;;;;;11.00;99.90;;;;;;5050967;28;20047;-75
2024/03/22 07:05:47;;;;;;;26.13;15.48;;;11.00;99.90;;;;;;5054395;28;19923;-76
2024/03/22 07:08:13;;;;;;;28.67;17.38;;;11.00;99.90;;;;;;5058473;28;20043;-72
2024/03/22 07:10:39;;;;;;;;;;;11.00;99.90;;;;;;5056249;28;20028;-75
2024/03/22 07:13:05;;;;;;;27.07;16.00;;;11.00;99.90;;;;;;5052517;28;19939;-75
2024/03/22 07:15:32;;;;;;;;;;;11.10;99.90;;;;;;5056177;28;20483;-73
2024/03/22 07:17:58;;;;;;;28.48;15.35;;;11.10;99.90;;;;;;5053619;28;19919;-73
2024/03/22 07:20:23;;;;;;;;;;;11.10;99.90;;;;;;5056087;28;20033;-74
2024/03/22 07:22:49;;;;;;;32.47;16.58;;;11.20;99.90;;;;;;5053660;28;19904;-74
2024/03/22 07:25:14;;;;;;;;;;;11.20;99.90;;;;;;5074342;22;20107;-69
2024/03/22 07:27:40;;;;;;;26.02;16.42;;;11.20;99.90;;;;;;5091286;27;19916;-69
2024/03/22 07:30:05;;;;;;;;;;;11.30;99.90;;;;;;5099951;27;20563;-71
2024/03/22 07:32:31;;;;;;;31.27;16.48;;;11.30;99.90;;;;;;5093963;27;19908;-68
2024/03/22 07:34:57;;;;;;;;;;;11.30;99.90;;;;;;5096049;27;20016;-69
2024/03/22 07:37:23;;;;;;;29.05;16.02;;;11.40;99.90;;;;;;5090735;28;19920;-69
2024/03/22 07:39:49;;;;;;;;;;;11.40;99.90;;;;;;5093160;28;20378;-69
2024/03/22 07:42:14;;;;;;;31.23;16.88;;;11.40;99.90;;;;;;5090407;28;19919;-69
2024/03/22 07:44:40;;;;;;;;;;;11.40;99.90;;;;;;5095570;28;20034;-69
2024/03/22 07:47:05;;;;;;;27.92;14.93;;;11.60;99.90;;;;;;5101794;28;19912;-69
2024/03/22 07:49:32;;;;;;;26.92;15.85;;;11.60;99.90;;;;;;5096453;28;20038;-69
2024/03/22 07:51:58;;;;;;;24.98;16.45;;;11.70;99.90;;;;;;5090838;28;20392;-69
2024/03/22 07:54:23;;;;;;;;;;;11.80;99.90;;;;;;5096360;28;20027;-69
2024/03/22 07:56:49;;;;;;;25.85;15.60;;;11.90;99.90;;;;;;5091250;28;19907;-69
2024/03/22 07:59:14;;;;;;;;;;;12.10;99.90;;;;;;5092724;27;20605;-69
2024/03/22 08:01:40;;;;;;;25.33;14.73;;;12.20;99.90;;;;;;5092784;28;19944;-69
2024/03/22 08:04:06;;;;;;;;;;;12.30;99.90;;;;;;5093839;27;20058;-70
2024/03/22 08:06:31;;;;;;;26.27;15.35;;;12.30;99.90;;;;;;5092575;28;20014;-70
2024/03/22 08:08:56;;;;;;;;;;;12.40;99.90;;;;;;5094364;28;20421;-69
2024/03/22 08:11:22;;;;;;;26.50;15.65;;;12.40;99.90;;;;;;5095354;27;19950;-69
2024/03/22 08:13:47;;;;;;;;;;;12.40;99.90;;;;;;5091868;28;20115;-69
2024/03/22 08:16:13;;;;;;;32.15;18.90;;;12.50;99.90;;;;;;5093538;27;19912;-69
2024/03/22 08:18:38;;;;;;;;;;;12.50;99.90;;;;;;5093281;28;20054;-69
2024/03/22 08:21:04;;;;;;;27.48;15.27;;;12.50;99.90;;;;;;5094478;28;19912;-69
2024/03/22 08:23:29;;;;;;;;;;;12.50;99.90;;;;;;5094557;28;20050;-69
2024/03/22 08:25:57;;;;;;;27.83;15.27;;;12.50;99.90;;;;;;5093220;28;19923;-69
2024/03/22 08:28:22;;;;;;;23.77;14.90;;;12.50;99.90;;;;;;5091904;28;20028;-69
2024/03/22 08:30:48;;;;;;;;;;;12.60;99.90;;;;;;5093439;28;20506;-69
2024/03/22 08:33:13;;;;;;;29.80;15.85;;;12.60;99.90;;;;;;5092350;28;20285;-69
2024/03/22 08:35:39;;;;;;;;;;;12.60;99.90;;;;;;5094915;27;20056;-69
2024/03/22 08:38:09;;;;;;;23.15;13.98;;;12.60;99.90;;;;;;5094957;28;20465;-69
2024/03/22 08:40:38;;;;;;;28.55;17.45;;;12.60;99.90;;;;;;5094301;27;20381;-69
2024/03/22 08:43:04;;;;;;;26.85;15.27;;;12.70;99.90;;;;;;5095969;28;20386;-69
2024/03/22 08:45:30;;;;;;;25.90;15.73;;;12.70;99.90;;;;;;5095861;28;20114;-69
2024/03/22 08:47:55;;;;;;;25.70;15.48;;;12.70;99.90;;;;;;5093260;28;20103;-69
2024/03/22 08:50:20;;;;;;;;;;;12.80;99.90;;;;;;5099751;28;20028;-69
2024/03/22 08:52:46;;;;;;;25.70;15.65;;;12.80;99.90;;;;;;5097172;28;20370;-69
2024/03/22 08:55:13;;;;;;;;;;;12.80;99.90;;;;;;5093906;28;20036;-69
2024/03/22 08:57:38;;;;;;;24.23;14.98;;;12.80;99.90;;;;;;5092891;28;19965;-69
2024/03/22 09:00:04;;;;;;;;;;;12.80;99.90;;;;;;5092603;28;20054;-69
2024/03/22 09:02:29;;;;;;;29.23;15.98;;;12.90;99.90;;;;;;5091527;28;19915;-69
2024/03/22 09:04:55;;;;;;;29.38;17.48;;;12.90;99.90;;;;;;5091380;28;20025;-69
2024/03/22 09:07:21;;;;;;;28.48;15.65;;;12.90;99.90;;;;;;5095333;28;20055;-69
2024/03/22 09:09:47;;;;;;;28.27;15.77;;;13.00;99.90;;;;;;5096782;28;20070;-69
2024/03/22 09:12:12;;;;;;;32.90;18.00;;;13.10;99.90;;;;;;5092625;28;20031;-69
2024/03/22 09:14:38;;;;;;;31.80;16.83;;;13.10;99.90;;;;;;5095581;28;20055;-69
2024/03/22 09:17:03;;;;;;;25.67;15.48;;;13.20;99.90;;;;;;5090532;28;20084;-69
2024/03/22 09:19:29;;;;;;;;;;;13.20;99.90;;;;;;5092258;28;20371;-69
2024/03/22 09:21:54;;;;;;;26.85;15.07;;;13.30;99.90;;;;;;5094331;28;19919;-69
2024/03/22 09:24:20;;;;;;;28.08;17.17;;;13.40;99.90;;;;;;5095932;28;20485;-70
2024/03/22 09:26:45;;;;;;;27.05;17.40;;;13.50;99.90;;;;;;5090793;28;20024;-70
2024/03/22 09:29:13;;;;;;;32.60;17.10;;;13.50;99.90;;;;;;5091882;28;20032;-70
2024/03/22 09:31:38;;;;;;;24.20;16.90;;;13.50;99.90;;;;;;5093171;28;20030;-70
2024/03/22 09:34:04;;;;;;;28.48;17.35;;;13.50;99.90;;;;;;5094219;28;20406;-70
2024/03/22 09:36:34;;;;;;;;;;;13.50;99.90;;;;;;5092077;28;20024;-70
2024/03/22 09:38:59;;;;;;;34.72;17.38;;;13.40;99.90;;;;;;5094129;28;19920;-70
2024/03/22 09:41:25;;;;;;;29.77;16.67;;;13.50;99.90;;;;;;5092733;28;20023;-70
2024/03/22 09:43:57;;;;;;;34.67;19.52;;;13.50;99.90;;;;;;5091988;28;20093;-70
2024/03/22 09:46:23;;;;;;;26.63;18.45;;;13.50;99.90;;;;;;5092804;28;20150;-70
2024/03/22 09:48:49;;;;;;;30.42;16.88;;;13.50;99.90;;;;;;5093492;28;20107;-70
2024/03/22 09:51:17;;;;;;;27.55;16.77;;;13.40;99.90;;;;;;5091558;28;20028;-70
2024/03/22 09:53:48;;;;;;;28.85;16.40;;;13.40;99.90;;;;;;5092233;28;20024;-70
2024/03/22 09:56:15;;;;;;;27.35;19.02;;;13.40;99.90;;;;;;5095878;28;20028;-70
2024/03/22 09:58:44;;;;;;;28.45;16.42;;;13.40;99.90;;;;;;5102868;28;20135;-70
2024/03/22 10:01:12;;;;;;;31.13;17.63;;;13.40;99.90;;;;;;5093048;28;20024;-69
2024/03/22 10:03:37;;;;;;;25.83;16.15;;;13.50;99.90;;;;;;5096116;28;20048;-69
2024/03/22 10:06:03;;;;;;;30.55;18.02;;;13.50;99.90;;;;;;5100437;28;20517;-70
2024/03/22 10:08:29;;;;;;;;;;;13.50;99.90;;;;;;5097537;28;20040;-69
2024/03/22 10:10:55;;;;;;;29.50;17.60;;;13.60;99.90;;;;;;5096139;28;19912;-70
2024/03/22 10:13:21;;;;;;;28.33;15.80;;;13.60;99.90;;;;;;5095398;28;20093;-70
2024/03/22 10:15:47;;;;;;;28.83;17.02;;;13.70;99.90;;;;;;5096959;28;20129;-70
2024/03/22 10:18:12;;;;;;;26.65;16.45;;;13.70;99.90;;;;;;5094470;28;20437;-70
2024/03/22 10:20:38;;;;;;;28.15;17.50;;;13.70;99.90;;;;;;5098157;28;20047;-70
2024/03/22 10:23:03;;;;;;;26.52;17.30;;;13.80;99.90;;;;;;5092157;27;20023;-70
2024/03/22 10:25:29;;;;;;;25.42;16.27;;;13.80;99.90;;;;;;5095103;28;20036;-70
2024/03/22 10:27:55;;;;;;;26.10;16.90;;;13.90;99.90;;;;;;5097851;28;20995;-69
2024/03/22 10:30:22;;;;;;;26.83;15.38;;;14.00;99.90;;;;;;5096814;28;20438;-70
2024/03/22 10:32:48;;;;;;;26.40;15.82;;;14.20;99.90;;;;;;5094495;28;20102;-70
2024/03/22 10:35:14;;;;;;;24.67;15.13;;;14.30;99.90;;;;;;5093732;28;20028;-70
2024/03/22 10:37:41;;;;;;;25.55;16.33;;;14.30;99.90;;;;;;5093490;27;20157;-70
2024/03/22 10:40:10;;;;;;;20.20;13.45;;;14.40;99.90;;;;;;5095734;28;20023;-70
2024/03/22 10:42:37;;;;;;;24.60;15.10;;;14.50;99.90;;;;;;5092645;28;20027;-69
2024/03/22 10:45:03;;;;;;;26.48;15.93;;;14.60;99.50;;;;;;5094773;27;20024;-70
2024/03/22 10:47:30;;;;;;;22.45;14.68;;;14.70;99.50;;;;;;5094902;28;20035;-70
2024/03/22 10:50:06;;;;;;;25.48;15.35;;;14.70;99.20;;;;;;5095402;28;20031;-69
2024/03/22 10:52:35;;;;;;;27.70;14.90;;;14.80;99.20;;;;;;5096870;28;20040;-70
2024/03/22 10:55:04;;;;;;;22.08;14.00;;;14.80;99.10;;;;;;5095107;28;20023;-70
2024/03/22 10:57:30;;;;;;;19.98;14.43;;;14.80;99.20;;;;;;5092984;28;20040;-70
2024/03/22 10:59:55;;;;;;;22.92;14.68;;;14.90;99.20;;;;;;5096926;28;20505;-69
2024/03/22 11:02:24;;;;;;;24.35;14.82;;;14.90;99.10;;;;;;5096328;28;20039;-69
2024/03/22 11:04:59;;;;;;;27.85;15.68;;;14.90;99.00;;;;;;5097716;28;20394;-70
2024/03/22 11:07:29;;;;;;;21.33;13.88;;;14.90;98.90;;;;;;5093879;28;20052;-69
2024/03/22 11:10:00;;;;;;;22.33;14.52;;;14.90;99.10;;;;;;5097863;28;20039;-72
2024/03/22 11:12:27;;;;;;;22.92;15.32;;;14.80;98.90;;;;;;5093868;28;20119;-69
2024/03/22 11:14:54;;;;;;;21.38;14.55;;;14.80;99.10;;;;;;5092633;28;20032;-69
2024/03/22 11:17:21;;;;;;;23.90;14.30;;;14.70;99.10;;;;;;5095919;28;20429;-69
2024/03/22 11:19:46;;;;;;;25.15;15.45;;;14.70;99.20;;;;;;5093953;28;20081;-70
2024/03/22 11:22:13;;;;;;;23.42;14.43;;;14.70;99.30;;;;;;5095527;28;20032;-70
2024/03/22 11:24:38;;;;;;;24.95;15.38;;;14.70;99.50;;;;;;5092996;27;20053;-70
2024/03/22 11:27:04;;;;;;;21.77;14.05;;;14.70;99.90;;;;;;5096515;28;20155;-70
2024/03/22 11:29:29;;;;;;;19.15;12.75;;;14.70;99.90;;;;;;5096715;28;20117;-70
2024/03/22 11:31:55;;;;;;;20.77;13.75;;;14.70;99.90;;;;;;5094029;28;20077;-70
2024/03/22 11:34:21;;;;;;;26.10;14.98;;;14.70;99.90;;;;;;5091054;28;20368;-70
2024/03/22 11:36:46;;;;;;;22.42;13.73;;;14.60;99.90;;;;;;5095392;28;20452;-71
2024/03/22 11:39:13;;;;;;;16.80;12.52;;;14.50;99.90;;;;;;5093190;28;20070;-71
2024/03/22 11:41:39;;;;;;;16.65;9.88;;;14.30;99.90;;;;;;5092362;28;20024;-70
2024/03/22 11:44:05;;;;;;;18.77;9.45;;;14.20;99.90;;;;;;5095977;28;20350;-73
2024/03/22 11:46:30;;;;;;;15.50;9.00;;;14.10;99.90;;;;;;5092363;28;20123;-74
2024/03/22 11:48:57;;;;;;;11.65;8.10;;;14.10;99.90;;;;;;5092318;28;20458;-73
2024/03/22 11:51:23;;;;;;;11.98;8.18;;;14.10;99.90;;;;;;5096467;28;20143;-71
2024/03/22 11:53:53;;;;;;;11.20;7.90;;;14.10;99.90;;;;;;5096205;27;20106;-71
2024/03/22 11:56:20;;;;;;;14.30;8.23;;;14.10;99.90;;;;;;5090975;28;20511;-72
2024/03/22 11:58:57;;;;;;;14.15;7.60;;;14.20;99.90;;;;;;5095683;27;20060;-71
2024/03/22 12:01:22;;;;;;;12.05;8.50;;;14.20;99.90;;;;;;5092527;28;20496;-70
2024/03/22 12:03:48;;;;;;;10.07;6.15;;;14.40;99.70;;;;;;5092334;28;20023;-70
2024/03/22 12:06:15;;;;;;;15.57;8.15;;;14.40;99.30;;;;;;5092032;28;20512;-70
2024/03/22 12:08:41;;;;;;;12.68;7.30;;;14.50;99.20;;;;;;5092127;27;20427;-71
2024/03/22 12:11:09;;;;;;;10.57;6.90;;;14.60;99.60;;;;;;5091554;28;20363;-70
2024/03/22 12:13:35;;;;;;;14.40;7.57;;;14.70;98.80;;;;;;5094762;28;20020;-71
2024/03/22 12:16:01;;;;;;;10.10;7.15;;;14.70;98.60;;;;;;5094217;28;20383;-71
2024/03/22 12:18:27;;;;;;;12.75;6.88;;;14.80;98.30;;;;;;5093934;28;20730;-70
2024/03/22 12:20:53;;;;;;;11.82;6.72;;;14.70;98.30;;;;;;5095548;28;20032;-70
2024/03/22 12:23:18;;;;;;;11.77;6.82;;;14.70;98.40;;;;;;5093967;28;20028;-70
2024/03/22 12:25:44;;;;;;;10.75;7.22;;;14.70;97.80;;;;;;5090963;28;20199;-70
2024/03/22 12:28:09;;;;;;;9.15;6.30;;;14.70;98.00;;;;;;5090472;28;20115;-70
2024/03/22 12:30:35;;;;;;;11.15;7.10;;;14.70;98.00;;;;;;5093764;28;20478;-70
2024/03/22 12:33:01;;;;;;;8.40;6.32;;;14.80;98.00;;;;;;5096248;28;20081;-71
2024/03/22 12:35:26;;;;;;;10.07;7.93;;;14.70;98.10;;;;;;5092150;28;20398;-71
2024/03/22 12:37:52;;;;;;;10.30;7.20;;;14.80;98.00;;;;;;5089640;28;20034;-71
2024/03/22 12:40:18;;;;;;;15.18;8.70;;;14.90;98.10;;;;;;5092452;28;20078;-71
2024/03/22 12:42:44;;;;;;;10.25;7.35;;;14.90;98.00;;;;;;5089932;28;20034;-71
2024/03/22 12:45:09;;;;;;;9.57;7.43;;;14.90;97.80;;;;;;5091083;28;20027;-72
2024/03/22 12:47:35;;;;;;;12.50;7.45;;;14.90;97.80;;;;;;5094095;28;20398;-70
2024/03/22 12:50:00;;;;;;;11.35;7.20;;;14.90;97.80;;;;;;5092822;28;20028;-70
2024/03/22 12:52:26;;;;;;;11.10;7.63;;;14.90;97.70;;;;;;5091647;28;20031;-70
2024/03/22 12:54:52;;;;;;;13.07;7.03;;;14.90;97.90;;;;;;5091905;28;20031;-71
2024/03/22 12:57:18;;;;;;;13.27;8.60;;;14.80;97.90;;;;;;5090243;28;20024;-71
2024/03/22 12:59:46;;;;;;;13.57;7.35;;;14.80;97.80;;;;;;5094110;28;20705;-70